sensor_id;sensor_type;location;lat;lon;timestamp;pressure;altitude;pressure_sealevel;temperature;humidity
4767;BME280;2397;53.576;9.746;2024-01-15T00:02:01;99321.97;;;0.93;100.00
4767;BME280;2397;53.576;9.746;2024-01-15T00:04:28;99325.31;;;0.84;100.00
4767;BME280;2397;53.576;9.746;2024-01-15T00:06:55;99320.97;;;0.73;100.00
4767;BME280;2397;53.576;9.746;2024-01-15T00:09:22;99306.34;;;0.72;100.00
4767;BME280;2397;53.576;9.746;2024-01-15T00:11:48;99321.09;;;0.72;100.00
4767;BME280;2397;53.576;9.746;2024-01-15T00:14:15;99307.06;;;0.74;100.00
4767;BME280;2397;53.576;9.746;2024-01-15T00:16:46;99315.41;;;0.78;100.00
4767;BME280;2397;53.576;9.746;2024-01-15T00:19:15;99318.22;;;0.86;100.00
4767;BME280;2397;53.576;9.746;2024-01-15T00:21:42;99305.19;;;0.97;100.00
4767;BME280;2397;53.576;9.746;2024-01-15T00:24:09;99304.22;;;0.98;100.00
4767;BME280;2397;53.576;9.746;2024-01-15T00:26:36;99285.22;;;0.97;100.00
4767;BME280;2397;53.576;9.746;2024-01-15T00:29:03;99273.44;;;0.93;100.00
4767;BME280;2397;53.576;9.746;2024-01-15T00:31:30;99269.00;;;0.84;100.00
4767;BME280;2397;53.576;9.746;2024-01-15T00:33:56;99272.56;;;0.83;100.00
4767;BME280;2397;53.576;9.746;2024-01-15T00:36:24;99268.75;;;0.87;100.00
4767;BME280;2397;53.576;9.746;2024-01-15T00:38:51;99275.88;;;0.85;100.00
4767;BME280;2397;53.576;9.746;2024-01-15T00:41:18;99269.59;;;0.88;100.00
4767;BME280;2397;53.576;9.746;2024-01-15T00:43:47;99261.78;;;0.88;100.00
4767;BME280;2397;53.576;9.746;2024-01-15T00:46:15;99258.38;;;0.87;100.00
4767;BME280;2397;53.576;9.746;2024-01-15T00:48:42;99245.25;;;0.89;100.00
4767;BME280;2397;53.576;9.746;2024-01-15T00:51:08;99244.16;;;0.91;100.00
4767;BME280;2397;53.576;9.746;2024-01-15T00:53:35;99248.16;;;0.95;100.00
4767;BME280;2397;53.576;9.746;2024-01-15T00:56:02;99246.16;;;0.99;100.00
4767;BME280;2397;53.576;9.746;2024-01-15T00:58:29;99241.75;;;0.99;100.00
4767;BME280;2397;53.576;9.746;2024-01-15T01:00:56;99234.63;;;0.92;100.00
4767;BME280;2397;53.576;9.746;2024-01-15T01:03:22;99223.97;;;0.95;100.00
4767;BME280;2397;53.576;9.746;2024-01-15T01:05:49;99233.09;;;0.89;100.00
4767;BME280;2397;53.576;9.746;2024-01-15T01:08:19;99229.72;;;0.98;100.00
4767;BME280;2397;53.576;9.746;2024-01-15T01:10:46;99230.38;;;1.11;100.00
4767;BME280;2397;53.576;9.746;2024-01-15T01:13:12;99224.13;;;1.23;100.00
4767;BME280;2397;53.576;9.746;2024-01-15T01:15:39;99229.34;;;1.23;100.00
4767;BME280;2397;53.576;9.746;2024-01-15T01:18:05;99207.59;;;1.24;100.00
4767;BME280;2397;53.576;9.746;2024-01-15T01:20:32;99217.34;;;1.32;100.00
4767;BME280;2397;53.576;9.746;2024-01-15T01:22:59;99209.13;;;1.36;100.00
4767;BME280;2397;53.576;9.746;2024-01-15T01:25:26;99200.78;;;1.33;100.00
4767;BME280;2397;53.576;9.746;2024-01-15T01:27:53;99201.84;;;1.21;100.00
4767;BME280;2397;53.576;9.746;2024-01-15T01:30:19;99202.59;;;1.12;100.00
4767;BME280;2397;53.576;9.746;2024-01-15T01:32:46;99204.09;;;1.14;100.00
4767;BME280;2397;53.576;9.746;2024-01-15T01:35:13;99204.97;;;1.24;100.00
4767;BME280;2397;53.576;9.746;2024-01-15T01:37:40;99198.91;;;1.14;100.00
4767;BME280;2397;53.576;9.746;2024-01-15T01:40:07;99204.91;;;1.05;100.00
4767;BME280;2397;53.576;9.746;2024-01-15T01:42:34;99213.91;;;1.01;100.00
4767;BME280;2397;53.576;9.746;2024-01-15T01:45:00;99226.75;;;1.03;100.00
4767;BME280;2397;53.576;9.746;2024-01-15T01:47:27;99212.56;;;1.07;100.00
4767;BME280;2397;53.576;9.746;2024-01-15T01:49:54;99213.41;;;1.07;100.00
4767;BME280;2397;53.576;9.746;2024-01-15T01:52:21;99219.38;;;1.08;100.00
4767;BME280;2397;53.576;9.746;2024-01-15T01:54:48;99207.63;;;1.04;100.00
4767;BME280;2397;53.576;9.746;2024-01-15T01:57:14;99203.25;;;1.04;100.00
4767;BME280;2397;53.576;9.746;2024-01-15T01:59:41;99201.47;;;1.05;100.00
4767;BME280;2397;53.576;9.746;2024-01-15T02:02:08;99191.06;;;1.05;100.00
4767;BME280;2397;53.576;9.746;2024-01-15T02:04:35;99180.13;;;1.01;100.00
4767;BME280;2397;53.576;9.746;2024-01-15T02:07:03;99177.97;;;1.06;100.00
4767;BME280;2397;53.576;9.746;2024-01-15T02:09:30;99177.03;;;1.07;100.00
4767;BME280;2397;53.576;9.746;2024-01-15T02:11:58;99181.13;;;1.10;100.00
4767;BME280;2397;53.576;9.746;2024-01-15T02:14:25;99177.69;;;1.09;100.00
4767;BME280;2397;53.576;9.746;2024-01-15T02:16:52;99180.81;;;1.03;100.00
4767;BME280;2397;53.576;9.746;2024-01-15T02:19:18;99182.97;;;0.98;100.00
4767;BME280;2397;53.576;9.746;2024-01-15T02:21:45;99186.78;;;0.94;100.00
4767;BME280;2397;53.576;9.746;2024-01-15T02:24:12;99175.69;;;0.92;100.00
4767;BME280;2397;53.576;9.746;2024-01-15T02:26:39;99181.09;;;1.00;100.00
4767;BME280;2397;53.576;9.746;2024-01-15T02:29:07;99180.31;;;1.09;100.00
4767;BME280;2397;53.576;9.746;2024-01-15T02:31:36;99170.19;;;1.16;100.00
4767;BME280;2397;53.576;9.746;2024-01-15T02:34:03;99182.56;;;1.23;100.00
4767;BME280;2397;53.576;9.746;2024-01-15T02:36:30;99170.00;;;1.28;100.00
4767;BME280;2397;53.576;9.746;2024-01-15T02:38:56;99182.84;;;1.30;100.00
4767;BME280;2397;53.576;9.746;2024-01-15T02:41:23;99179.00;;;1.24;100.00
4767;BME280;2397;53.576;9.746;2024-01-15T02:43:49;99176.22;;;1.16;100.00
4767;BME280;2397;53.576;9.746;2024-01-15T02:46:16;99176.94;;;1.18;100.00
4767;BME280;2397;53.576;9.746;2024-01-15T02:48:43;99175.94;;;1.10;100.00
4767;BME280;2397;53.576;9.746;2024-01-15T02:51:10;99188.38;;;1.16;100.00
4767;BME280;2397;53.576;9.746;2024-01-15T02:53:37;99182.56;;;1.23;100.00
4767;BME280;2397;53.576;9.746;2024-01-15T02:56:04;99176.97;;;1.28;100.00
4767;BME280;2397;53.576;9.746;2024-01-15T02:58:31;99177.38;;;1.23;100.00
4767;BME280;2397;53.576;9.746;2024-01-15T03:00:57;99172.03;;;1.25;100.00
4767;BME280;2397;53.576;9.746;2024-01-15T03:03:24;99187.75;;;1.23;100.00
4767;BME280;2397;53.576;9.746;2024-01-15T03:05:51;99204.03;;;1.25;100.00
4767;BME280;2397;53.576;9.746;2024-01-15T03:08:18;99197.19;;;1.24;100.00
4767;BME280;2397;53.576;9.746;2024-01-15T03:10:44;99201.25;;;1.17;100.00
4767;BME280;2397;53.576;9.746;2024-01-15T03:13:11;99198.22;;;1.12;100.00
4767;BME280;2397;53.576;9.746;2024-01-15T03:15:37;99199.56;;;1.07;100.00
4767;BME280;2397;53.576;9.746;2024-01-15T03:18:04;99193.28;;;1.09;100.00
4767;BME280;2397;53.576;9.746;2024-01-15T03:20:32;99203.44;;;1.12;100.00
4767;BME280;2397;53.576;9.746;2024-01-15T03:22:58;99229.72;;;1.19;100.00
4767;BME280;2397;53.576;9.746;2024-01-15T03:25:25;99218.31;;;1.10;100.00
4767;BME280;2397;53.576;9.746;2024-01-15T03:27:51;99216.91;;;1.06;100.00
4767;BME280;2397;53.576;9.746;2024-01-15T03:30:18;99221.69;;;1.01;100.00
4767;BME280;2397;53.576;9.746;2024-01-15T03:32:45;99217.69;;;0.97;100.00
4767;BME280;2397;53.576;9.746;2024-01-15T03:35:13;99204.53;;;0.89;100.00
4767;BME280;2397;53.576;9.746;2024-01-15T03:37:40;99209.78;;;0.78;100.00
4767;BME280;2397;53.576;9.746;2024-01-15T03:40:07;99205.22;;;0.71;100.00
4767;BME280;2397;53.576;9.746;2024-01-15T03:42:34;99214.88;;;0.80;100.00
4767;BME280;2397;53.576;9.746;2024-01-15T03:45:01;99215.66;;;0.80;100.00
4767;BME280;2397;53.576;9.746;2024-01-15T03:47:27;99217.47;;;0.80;100.00
4767;BME280;2397;53.576;9.746;2024-01-15T03:49:54;99215.41;;;0.83;100.00
4767;BME280;2397;53.576;9.746;2024-01-15T03:52:20;99216.81;;;0.87;100.00
4767;BME280;2397;53.576;9.746;2024-01-15T03:54:47;99221.75;;;0.90;100.00
4767;BME280;2397;53.576;9.746;2024-01-15T03:57:14;99216.75;;;0.98;100.00
4767;BME280;2397;53.576;9.746;2024-01-15T03:59:41;99211.16;;;1.03;100.00
4767;BME280;2397;53.576;9.746;2024-01-15T04:02:08;99208.25;;;1.17;100.00
4767;BME280;2397;53.576;9.746;2024-01-15T04:04:35;99213.75;;;1.23;100.00
4767;BME280;2397;53.576;9.746;2024-01-15T04:07:01;99223.63;;;1.29;100.00
4767;BME280;2397;53.576;9.746;2024-01-15T04:09:28;99222.53;;;1.32;100.00
4767;BME280;2397;53.576;9.746;2024-01-15T04:11:55;99221.19;;;1.37;100.00
4767;BME280;2397;53.576;9.746;2024-01-15T04:14:21;99220.25;;;1.38;100.00
4767;BME280;2397;53.576;9.746;2024-01-15T04:16:48;99218.50;;;1.48;100.00
4767;BME280;2397;53.576;9.746;2024-01-15T04:19:14;99223.38;;;1.42;100.00
4767;BME280;2397;53.576;9.746;2024-01-15T04:21:41;99226.22;;;1.29;100.00
4767;BME280;2397;53.576;9.746;2024-01-15T04:24:07;99219.34;;;1.28;100.00
4767;BME280;2397;53.576;9.746;2024-01-15T04:26:34;99224.34;;;1.41;100.00
4767;BME280;2397;53.576;9.746;2024-01-15T04:29:01;99225.00;;;1.33;100.00
4767;BME280;2397;53.576;9.746;2024-01-15T04:31:27;99219.53;;;1.36;100.00
4767;BME280;2397;53.576;9.746;2024-01-15T04:33:54;99219.28;;;1.39;100.00
4767;BME280;2397;53.576;9.746;2024-01-15T04:36:21;99218.84;;;1.34;100.00
4767;BME280;2397;53.576;9.746;2024-01-15T04:38:48;99220.41;;;1.16;100.00
4767;BME280;2397;53.576;9.746;2024-01-15T04:41:16;99213.81;;;1.12;100.00
4767;BME280;2397;53.576;9.746;2024-01-15T04:43:43;99209.94;;;1.27;100.00
4767;BME280;2397;53.576;9.746;2024-01-15T04:46:09;99213.75;;;1.23;100.00
4767;BME280;2397;53.576;9.746;2024-01-15T04:48:36;99218.16;;;1.32;100.00
4767;BME280;2397;53.576;9.746;2024-01-15T04:51:08;99220.56;;;1.24;100.00
4767;BME280;2397;53.576;9.746;2024-01-15T04:53:35;99219.50;;;1.27;100.00
4767;BME280;2397;53.576;9.746;2024-01-15T04:56:02;99220.16;;;1.19;100.00
4767;BME280;2397;53.576;9.746;2024-01-15T04:58:28;99213.44;;;1.17;100.00
4767;BME280;2397;53.576;9.746;2024-01-15T05:00:55;99217.31;;;1.22;100.00
4767;BME280;2397;53.576;9.746;2024-01-15T05:03:22;99215.91;;;1.18;100.00
4767;BME280;2397;53.576;9.746;2024-01-15T05:05:49;99220.81;;;1.21;100.00
4767;BME280;2397;53.576;9.746;2024-01-15T05:08:15;99218.50;;;1.18;100.00
4767;BME280;2397;53.576;9.746;2024-01-15T05:10:42;99210.97;;;1.15;100.00
4767;BME280;2397;53.576;9.746;2024-01-15T05:13:09;99208.53;;;1.23;100.00
4767;BME280;2397;53.576;9.746;2024-01-15T05:15:35;99210.75;;;1.28;100.00
4767;BME280;2397;53.576;9.746;2024-01-15T05:18:02;99204.34;;;1.32;100.00
4767;BME280;2397;53.576;9.746;2024-01-15T05:20:29;99214.34;;;1.36;100.00
4767;BME280;2397;53.576;9.746;2024-01-15T05:22:55;99207.94;;;1.40;100.00
4767;BME280;2397;53.576;9.746;2024-01-15T05:25:22;99217.97;;;1.54;100.00
4767;BME280;2397;53.576;9.746;2024-01-15T05:27:49;99219.63;;;1.55;100.00
4767;BME280;2397;53.576;9.746;2024-01-15T05:30:15;99222.22;;;1.55;100.00
4767;BME280;2397;53.576;9.746;2024-01-15T05:32:43;99224.84;;;1.55;100.00
4767;BME280;2397;53.576;9.746;2024-01-15T05:35:09;99222.91;;;1.57;100.00
4767;BME280;2397;53.576;9.746;2024-01-15T05:37:36;99221.41;;;1.55;100.00
4767;BME280;2397;53.576;9.746;2024-01-15T05:40:03;99223.41;;;1.51;100.00
4767;BME280;2397;53.576;9.746;2024-01-15T05:42:31;99221.28;;;1.56;100.00
4767;BME280;2397;53.576;9.746;2024-01-15T05:44:58;99220.69;;;1.53;100.00
4767;BME280;2397;53.576;9.746;2024-01-15T05:47:26;99220.69;;;1.53;100.00
4767;BME280;2397;53.576;9.746;2024-01-15T05:49:52;99211.66;;;1.47;100.00
4767;BME280;2397;53.576;9.746;2024-01-15T05:52:19;99216.28;;;1.44;100.00
4767;BME280;2397;53.576;9.746;2024-01-15T05:54:47;99223.84;;;1.47;100.00
4767;BME280;2397;53.576;9.746;2024-01-15T05:57:14;99234.53;;;1.53;100.00
4767;BME280;2397;53.576;9.746;2024-01-15T05:59:41;99232.19;;;1.50;100.00
4767;BME280;2397;53.576;9.746;2024-01-15T06:02:07;99225.59;;;1.46;100.00
4767;BME280;2397;53.576;9.746;2024-01-15T06:04:34;99232.97;;;1.41;100.00
4767;BME280;2397;53.576;9.746;2024-01-15T06:07:00;99233.09;;;1.40;100.00
4767;BME280;2397;53.576;9.746;2024-01-15T06:09:27;99232.97;;;1.41;100.00
4767;BME280;2397;53.576;9.746;2024-01-15T06:11:55;99235.03;;;1.47;100.00
4767;BME280;2397;53.576;9.746;2024-01-15T06:14:21;99232.16;;;1.41;100.00
4767;BME280;2397;53.576;9.746;2024-01-15T06:16:48;99231.59;;;1.37;100.00
4767;BME280;2397;53.576;9.746;2024-01-15T06:19:15;99227.50;;;1.35;100.00
4767;BME280;2397;53.576;9.746;2024-01-15T06:21:42;99232.16;;;1.41;100.00
4767;BME280;2397;53.576;9.746;2024-01-15T06:24:08;99224.50;;;1.49;100.00
4767;BME280;2397;53.576;9.746;2024-01-15T06:26:37;99230.84;;;1.56;100.00
4767;BME280;2397;53.576;9.746;2024-01-15T06:29:03;99229.63;;;1.60;100.00
4767;BME280;2397;53.576;9.746;2024-01-15T06:31:30;99223.63;;;1.59;100.00
4767;BME280;2397;53.576;9.746;2024-01-15T06:33:57;99230.44;;;1.60;100.00
4767;BME280;2397;53.576;9.746;2024-01-15T06:36:24;99230.31;;;1.62;100.00
4767;BME280;2397;53.576;9.746;2024-01-15T06:38:50;99224.53;;;1.58;100.00
4767;BME280;2397;53.576;9.746;2024-01-15T06:41:17;99225.91;;;1.53;100.00
4767;BME280;2397;53.576;9.746;2024-01-15T06:43:43;99232.09;;;1.61;100.00
4767;BME280;2397;53.576;9.746;2024-01-15T06:46:10;99229.75;;;1.58;100.00
4767;BME280;2397;53.576;9.746;2024-01-15T06:48:37;99235.91;;;1.57;100.00
4767;BME280;2397;53.576;9.746;2024-01-15T06:51:04;99242.75;;;1.58;100.00
4767;BME280;2397;53.576;9.746;2024-01-15T06:53:30;99239.31;;;1.48;100.00
4767;BME280;2397;53.576;9.746;2024-01-15T06:55:57;99244.50;;;1.48;100.00
4767;BME280;2397;53.576;9.746;2024-01-15T06:58:23;99246.97;;;1.50;100.00
4767;BME280;2397;53.576;9.746;2024-01-15T07:00:50;99253.41;;;1.46;100.00
4767;BME280;2397;53.576;9.746;2024-01-15T07:03:17;99248.03;;;1.47;100.00
4767;BME280;2397;53.576;9.746;2024-01-15T07:05:44;99256.84;;;1.56;100.00
4767;BME280;2397;53.576;9.746;2024-01-15T07:08:10;99245.34;;;1.58;100.00
4767;BME280;2397;53.576;9.746;2024-01-15T07:10:37;99252.75;;;1.63;100.00
4767;BME280;2397;53.576;9.746;2024-01-15T07:13:03;99262.22;;;1.73;100.00
4767;BME280;2397;53.576;9.746;2024-01-15T07:15:31;99264.84;;;1.73;100.00
4767;BME280;2397;53.576;9.746;2024-01-15T07:17:58;99255.84;;;1.77;100.00
4767;BME280;2397;53.576;9.746;2024-01-15T07:20:25;99254.50;;;1.83;100.00
4767;BME280;2397;53.576;9.746;2024-01-15T07:22:51;99255.03;;;1.86;100.00
4767;BME280;2397;53.576;9.746;2024-01-15T07:25:18;99262.13;;;1.84;100.00
4767;BME280;2397;53.576;9.746;2024-01-15T07:27:45;99259.13;;;1.79;100.00
4767;BME280;2397;53.576;9.746;2024-01-15T07:30:13;99266.50;;;1.74;100.00
4767;BME280;2397;53.576;9.746;2024-01-15T07:32:40;99266.34;;;1.66;100.00
4767;BME280;2397;53.576;9.746;2024-01-15T07:35:07;99265.13;;;1.70;100.00
4767;BME280;2397;53.576;9.746;2024-01-15T07:37:34;99266.34;;;1.66;100.00
4767;BME280;2397;53.576;9.746;2024-01-15T07:40:00;99266.84;;;1.60;100.00
4767;BME280;2397;53.576;9.746;2024-01-15T07:42:27;99264.50;;;1.57;100.00
4767;BME280;2397;53.576;9.746;2024-01-15T07:44:54;99257.41;;;1.59;100.00
4767;BME280;2397;53.576;9.746;2024-01-15T07:47:20;99268.38;;;1.63;100.00
4767;BME280;2397;53.576;9.746;2024-01-15T07:49:47;99267.09;;;1.57;100.00
4767;BME280;2397;53.576;9.746;2024-01-15T07:52:14;99279.16;;;1.58;100.00
4767;BME280;2397;53.576;9.746;2024-01-15T07:54:40;99282.72;;;1.57;100.00
4767;BME280;2397;53.576;9.746;2024-01-15T07:57:07;99275.75;;;1.58;100.00
4767;BME280;2397;53.576;9.746;2024-01-15T07:59:35;99276.84;;;1.55;100.00
4767;BME280;2397;53.576;9.746;2024-01-15T08:02:01;99285.56;;;1.54;100.00
4767;BME280;2397;53.576;9.746;2024-01-15T08:04:28;99287.22;;;1.55;100.00
4767;BME280;2397;53.576;9.746;2024-01-15T08:06:55;99287.91;;;1.57;100.00
4767;BME280;2397;53.576;9.746;2024-01-15T08:09:23;99289.84;;;1.55;100.00
4767;BME280;2397;53.576;9.746;2024-01-15T08:11:50;99285.56;;;1.54;100.00
4767;BME280;2397;53.576;9.746;2024-01-15T08:14:17;99291.59;;;1.55;100.00
4767;BME280;2397;53.576;9.746;2024-01-15T08:16:44;99290.88;;;1.53;100.00
4767;BME280;2397;53.576;9.746;2024-01-15T08:19:11;99292.16;;;1.58;100.00
4767;BME280;2397;53.576;9.746;2024-01-15T08:21:38;99291.34;;;1.58;100.00
4767;BME280;2397;53.576;9.746;2024-01-15T08:24:06;99291.47;;;1.56;100.00
4767;BME280;2397;53.576;9.746;2024-01-15T08:26:32;99299.22;;;1.47;100.00
4767;BME280;2397;53.576;9.746;2024-01-15T08:28:59;99302.19;;;1.42;100.00
4767;BME280;2397;53.576;9.746;2024-01-15T08:31:25;99294.66;;;1.39;100.00
4767;BME280;2397;53.576;9.746;2024-01-15T08:33:53;99305.75;;;1.41;100.00
4767;BME280;2397;53.576;9.746;2024-01-15T08:36:19;99306.78;;;1.29;100.00
4767;BME280;2397;53.576;9.746;2024-01-15T08:38:46;99317.19;;;1.29;100.00
4767;BME280;2397;53.576;9.746;2024-01-15T08:41:13;99324.03;;;1.30;100.00
4767;BME280;2397;53.576;9.746;2024-01-15T08:43:40;99314.31;;;1.32;100.00
4767;BME280;2397;53.576;9.746;2024-01-15T08:46:07;99321.28;;;1.32;100.00
4767;BME280;2397;53.576;9.746;2024-01-15T08:48:34;99328.00;;;1.34;100.00
4767;BME280;2397;53.576;9.746;2024-01-15T08:51:01;99321.59;;;1.38;100.00
4767;BME280;2397;53.576;9.746;2024-01-15T08:53:27;99323.91;;;1.32;100.00
4767;BME280;2397;53.576;9.746;2024-01-15T08:55:54;99323.91;;;1.32;100.00
4767;BME280;2397;53.576;9.746;2024-01-15T08:58:22;99320.47;;;1.31;100.00
4767;BME280;2397;53.576;9.746;2024-01-15T09:00:49;99320.22;;;1.34;100.00
4767;BME280;2397;53.576;9.746;2024-01-15T09:03:18;99311.34;;;1.37;100.00
4767;BME280;2397;53.576;9.746;2024-01-15T09:05:44;99311.75;;;1.42;100.00
4767;BME280;2397;53.576;9.746;2024-01-15T09:08:11;99311.50;;;1.45;100.00
4767;BME280;2397;53.576;9.746;2024-01-15T09:10:38;99318.69;;;1.52;100.00
4767;BME280;2397;53.576;9.746;2024-01-15T09:13:05;99313.47;;;1.52;100.00
4767;BME280;2397;53.576;9.746;2024-01-15T09:15:31;99317.28;;;1.48;100.00
4767;BME280;2397;53.576;9.746;2024-01-15T09:17:59;99314.34;;;1.42;100.00
4767;BME280;2397;53.576;9.746;2024-01-15T09:20:29;99318.44;;;1.35;100.00
4767;BME280;2397;53.576;9.746;2024-01-15T09:22:56;99307.22;;;1.34;100.00
4767;BME280;2397;53.576;9.746;2024-01-15T09:25:23;99314.97;;;1.25;100.00
4767;BME280;2397;53.576;9.746;2024-01-15T09:27:50;99317.69;;;1.23;100.00
4767;BME280;2397;53.576;9.746;2024-01-15T09:30:17;99327.38;;;1.21;100.00
4767;BME280;2397;53.576;9.746;2024-01-15T09:32:43;99324.75;;;1.21;100.00
4767;BME280;2397;53.576;9.746;2024-01-15T09:35:10;99321.53;;;1.29;100.00
4767;BME280;2397;53.576;9.746;2024-01-15T09:37:39;99325.72;;;1.41;100.00
4767;BME280;2397;53.576;9.746;2024-01-15T09:40:14;99331.50;;;1.44;100.00
4767;BME280;2397;53.576;9.746;2024-01-15T09:42:42;99335.66;;;1.56;100.00
4767;BME280;2397;53.576;9.746;2024-01-15T09:45:09;99335.72;;;1.66;100.00
4767;BME280;2397;53.576;9.746;2024-01-15T09:47:37;99340.53;;;1.70;100.00
4767;BME280;2397;53.576;9.746;2024-01-15T09:50:09;99347.56;;;1.79;100.00
4767;BME280;2397;53.576;9.746;2024-01-15T09:52:36;99359.34;;;1.83;100.00
4767;BME280;2397;53.576;9.746;2024-01-15T09:55:03;99371.34;;;1.75;100.00
4767;BME280;2397;53.576;9.746;2024-01-15T09:57:32;99367.34;;;1.71;100.00
4767;BME280;2397;53.576;9.746;2024-01-15T10:00:02;99380.59;;;1.47;100.00
4767;BME280;2397;53.576;9.746;2024-01-15T10:02:31;99384.94;;;1.37;100.00
4767;BME280;2397;53.576;9.746;2024-01-15T10:04:57;99376.97;;;1.29;100.00
4767;BME280;2397;53.576;9.746;2024-01-15T10:07:25;99376.06;;;1.19;100.00
4767;BME280;2397;53.576;9.746;2024-01-15T10:09:52;99393.78;;;1.14;100.00
4767;BME280;2397;53.576;9.746;2024-01-15T10:12:23;99403.91;;;1.17;100.00
4767;BME280;2397;53.576;9.746;2024-01-15T10:14:50;99394.13;;;1.21;100.00
4767;BME280;2397;53.576;9.746;2024-01-15T10:17:17;99399.19;;;1.22;100.00
4767;BME280;2397;53.576;9.746;2024-01-15T10:19:47;99399.16;;;1.33;100.00
4767;BME280;2397;53.576;9.746;2024-01-15T10:22:16;99397.59;;;1.31;100.00
4767;BME280;2397;53.576;9.746;2024-01-15T10:24:44;99399.63;;;1.27;100.00
4767;BME280;2397;53.576;9.746;2024-01-15T10:27:12;99403.22;;;1.15;100.00
4767;BME280;2397;53.576;9.746;2024-01-15T10:29:41;99403.28;;;1.04;100.00
4767;BME280;2397;53.576;9.746;2024-01-15T10:32:09;99409.66;;;1.00;100.00
4767;BME280;2397;53.576;9.746;2024-01-15T10:34:39;99410.47;;;1.01;100.00
4767;BME280;2397;53.576;9.746;2024-01-15T10:37:09;99412.72;;;1.05;100.00
4767;BME280;2397;53.576;9.746;2024-01-15T10:39:37;99414.81;;;1.11;100.00
4767;BME280;2397;53.576;9.746;2024-01-15T10:42:05;99420.94;;;1.10;100.00
4767;BME280;2397;53.576;9.746;2024-01-15T10:44:33;99429.63;;;1.00;100.00
4767;BME280;2397;53.576;9.746;2024-01-15T10:47:00;99434.38;;;0.84;100.00
4767;BME280;2397;53.576;9.746;2024-01-15T10:49:27;99434.53;;;0.71;100.00
4767;BME280;2397;53.576;9.746;2024-01-15T10:52:00;99432.53;;;0.64;100.00
4767;BME280;2397;53.576;9.746;2024-01-15T10:54:27;99428.06;;;0.55;100.00
4767;BME280;2397;53.576;9.746;2024-01-15T10:56:55;99427.47;;;0.51;100.00
4767;BME280;2397;53.576;9.746;2024-01-15T10:59:23;99428.78;;;0.46;100.00
4767;BME280;2397;53.576;9.746;2024-01-15T11:01:51;99429.25;;;0.40;100.00
4767;BME280;2397;53.576;9.746;2024-01-15T11:04:23;99423.84;;;0.43;100.00
4767;BME280;2397;53.576;9.746;2024-01-15T11:06:53;99423.56;;;0.46;100.00
4767;BME280;2397;53.576;9.746;2024-01-15T11:09:23;99426.06;;;0.47;100.00
4767;BME280;2397;53.576;9.746;2024-01-15T11:11:55;99427.47;;;0.51;100.00
4767;BME280;2397;53.576;9.746;2024-01-15T11:14:40;99419.00;;;0.49;100.00
4767;BME280;2397;53.576;9.746;2024-01-15T11:17:07;99417.09;;;0.51;100.00
4767;BME280;2397;53.576;9.746;2024-01-15T11:19:47;99419.00;;;0.49;100.00
4767;BME280;2397;53.576;9.746;2024-01-15T11:24:57;99423.44;;;0.58;100.00
4767;BME280;2397;53.576;9.746;2024-01-15T11:27:40;99421.56;;;0.60;100.00
4767;BME280;2397;53.576;9.746;2024-01-15T11:30:08;99433.94;;;0.68;100.00
4767;BME280;2397;53.576;9.746;2024-01-15T11:32:37;99433.00;;;0.69;100.00
4767;BME280;2397;53.576;9.746;2024-01-15T11:35:08;99442.81;;;0.54;100.00
4767;BME280;2397;53.576;9.746;2024-01-15T11:40:18;99447.53;;;0.38;100.00
4767;BME280;2397;53.576;9.746;2024-01-15T11:42:46;99440.56;;;0.39;100.00
4767;BME280;2397;53.576;9.746;2024-01-15T11:45:18;99448.97;;;0.42;100.00
4767;BME280;2397;53.576;9.746;2024-01-15T11:50:49;99448.59;;;0.58;100.00
4767;BME280;2397;53.576;9.746;2024-01-15T11:53:42;99453.41;;;0.62;100.00
4767;BME280;2397;53.576;9.746;2024-01-15T11:56:22;99456.28;;;0.59;100.00
4767;BME280;2397;53.576;9.746;2024-01-15T11:58:49;99450.34;;;0.57;100.00
4767;BME280;2397;53.576;9.746;2024-01-15T12:01:18;99472.31;;;0.53;100.00
4767;BME280;2397;53.576;9.746;2024-01-15T12:03:47;99470.66;;;0.52;100.00
4767;BME280;2397;53.576;9.746;2024-01-15T12:06:14;99467.34;;;0.50;100.00
4767;BME280;2397;53.576;9.746;2024-01-15T12:08:40;99473.59;;;0.48;100.00
4767;BME280;2397;53.576;9.746;2024-01-15T12:11:11;99467.47;;;0.49;100.00
4767;BME280;2397;53.576;9.746;2024-01-15T12:13:40;99463.56;;;0.54;100.00
4767;BME280;2397;53.576;9.746;2024-01-15T12:16:07;99465.22;;;0.55;100.00
4767;BME280;2397;53.576;9.746;2024-01-15T12:18:33;99466.38;;;0.62;100.00
4767;BME280;2397;53.576;9.746;2024-01-15T12:21:00;99463.22;;;0.70;100.00
4767;BME280;2397;53.576;9.746;2024-01-15T12:23:27;99468.28;;;0.71;100.00
4767;BME280;2397;53.576;9.746;2024-01-15T12:25:54;99468.50;;;0.79;100.00
4767;BME280;2397;53.576;9.746;2024-01-15T12:28:20;99463.44;;;0.78;100.00
4767;BME280;2397;53.576;9.746;2024-01-15T12:30:47;99472.53;;;0.72;100.00
4767;BME280;2397;53.576;9.746;2024-01-15T12:33:18;99476.06;;;0.71;100.00
4767;BME280;2397;53.576;9.746;2024-01-15T12:35:46;99479.03;;;0.67;100.00
4767;BME280;2397;53.576;9.746;2024-01-15T12:38:13;99493.31;;;0.61;100.00
4767;BME280;2397;53.576;9.746;2024-01-15T12:40:39;99488.22;;;0.60;100.00
4767;BME280;2397;53.576;9.746;2024-01-15T12:43:06;99493.75;;;0.66;100.00
4767;BME280;2397;53.576;9.746;2024-01-15T12:45:33;99490.94;;;0.58;100.00
4767;BME280;2397;53.576;9.746;2024-01-15T12:48:02;99496.63;;;0.52;100.00
4767;BME280;2397;53.576;9.746;2024-01-15T12:50:30;99491.44;;;0.52;100.00
4767;BME280;2397;53.576;9.746;2024-01-15T12:52:59;99494.72;;;0.54;100.00
4767;BME280;2397;53.576;9.746;2024-01-15T12:55:26;99493.66;;;0.57;100.00
4767;BME280;2397;53.576;9.746;2024-01-15T12:57:52;99489.75;;;0.62;100.00
4767;BME280;2397;53.576;9.746;2024-01-15T13:00:21;99493.75;;;0.66;100.00
4767;BME280;2397;53.576;9.746;2024-01-15T13:02:48;99494.50;;;0.57;100.00
4767;BME280;2397;53.576;9.746;2024-01-15T13:05:16;99493.53;;;0.58;100.00
4767;BME280;2397;53.576;9.746;2024-01-15T13:07:43;99503.00;;;0.59;100.00
4767;BME280;2397;53.576;9.746;2024-01-15T13:10:10;99497.09;;;0.57;100.00
4767;BME280;2397;53.576;9.746;2024-01-15T13:12:40;99504.53;;;0.51;100.00
4767;BME280;2397;53.576;9.746;2024-01-15T13:15:07;99510.28;;;0.54;100.00
4767;BME280;2397;53.576;9.746;2024-01-15T13:17:41;99503.91;;;0.58;100.00
4767;BME280;2397;53.576;9.746;2024-01-15T13:20:08;99508.31;;;0.69;100.00
4767;BME280;2397;53.576;9.746;2024-01-15T13:22:36;99515.72;;;0.73;100.00
4767;BME280;2397;53.576;9.746;2024-01-15T13:25:06;99520.44;;;0.79;100.00
4767;BME280;2397;53.576;9.746;2024-01-15T13:27:34;99520.69;;;0.76;100.00
4767;BME280;2397;53.576;9.746;2024-01-15T13:30:03;99527.50;;;0.77;100.00
4767;BME280;2397;53.576;9.746;2024-01-15T13:32:29;99530.94;;;0.89;100.00